KDVT/DVT METAR and TAF weather

Enter ICAO airport designator
Station Type Date Time Source
KDVT METAR 2020/04/05 12:53 UTC NOAA

KDVT 051253Z 10006KT 10SM CLR 12/02 A2983 RMK AO2 SLP087 T01220017


Station Type Date Time Source
KDVT Decoded METAR 2020/04/05 12:53 UTC NOAA

PHOENIX-DEER VALLEY MUN, AZ, United States (KDVT) 33-41N 112-04W 443M
Apr 05, 2020 - 08:53 AM EDT / 2020.04.05 1253 UTC
Wind: from the E (100 degrees) at 7 MPH (6 KT):0
Visibility: 10 mile(s):0
Sky conditions: clear
Temperature: 54.0 F (12.2 C)
Dew Point: 35.1 F (1.7 C)
Relative Humidity: 48%
Pressure (altimeter): 29.83 in. Hg (1010 hPa)
ob: KDVT 051253Z 10006KT 10SM CLR 12/02 A2983 RMK AO2 SLP087 T01220017
cycle: 13

Station Type Date Time Source
KDVT TAF 2020/04/05 12:22 UTC NOAA

TAF KDVT 051120Z 0512/0612 10007KT P6SM SKC
FM051700 18009KT P6SM SKC
FM052000 21011G17KT P6SM SKC
FM060300 22008KT P6SM SKC
FM061100 10005KT P6SM SKC

Example: see airport list